Time;durP1;ratioP1;P1;durP2;ratioP2;P2;SDS_P1;SDS_P2;PMS_P1;PMS_P2;Temp;Humidity;BMP_temperature;BMP_pressure;BME280_temperature;BME280_humidity;BME280_pressure;Samples;Min_cycle;Max_cycle;Signal;HPM_P1;HPM_P2
2022/10/19 00:00:30;;;;;;;9.20;5.37;;;8.80;78.60;;;8.78;55.26;95573.22;5080608;28;20464;-54
2022/10/19 00:02:57;;;;;;;9.57;5.70;;;8.70;78.60;;;8.75;55.37;95570.81;5085649;28;20465;-54
2022/10/19 00:05:24;;;;;;;14.90;6.83;;;8.70;78.80;;;8.73;55.77;95564.84;5073971;28;20450;-55
2022/10/19 00:07:51;;;;;;;8.73;5.93;;;8.70;79.60;;;8.71;55.33;95563.28;5081690;28;20764;-55
2022/10/19 00:10:19;;;;;;;11.00;7.30;;;8.70;79.10;;;8.65;55.22;95564.56;5071803;28;20467;-54
2022/10/19 00:12:46;;;;;;;13.27;7.60;;;8.60;79.20;;;8.64;55.38;95564.66;5083511;28;20590;-56
2022/10/19 00:15:15;;;;;;;20.10;8.50;;;8.60;79.10;;;8.60;55.05;95564.06;5073487;28;20481;-55
2022/10/19 00:17:42;;;;;;;22.07;9.40;;;8.60;79.10;;;8.55;55.21;95553.91;5074305;28;20525;-54
2022/10/19 00:20:10;;;;;;;14.43;8.00;;;8.50;79.00;;;8.53;55.10;95552.34;5080400;28;20521;-57
2022/10/19 00:22:38;;;;;;;16.53;8.00;;;8.50;78.80;;;8.50;55.55;95550.75;5069343;28;20965;-54
2022/10/19 00:25:07;;;;;;;23.87;7.53;;;8.50;79.50;;;8.48;55.19;95544.78;5080907;28;20474;-54
2022/10/19 00:27:34;;;;;;;13.80;6.87;;;8.40;79.30;;;8.47;55.82;95545.72;5078593;28;20491;-55
2022/10/19 00:30:01;;;;;;;12.30;6.10;;;8.40;80.10;;;8.44;55.46;95543.34;5080676;28;20904;-56
2022/10/19 00:32:30;;;;;;;11.83;5.50;;;8.40;79.80;;;8.41;55.22;95535.66;5082214;28;20458;-57
2022/10/19 00:34:57;;;;;;;18.10;7.13;;;8.40;80.10;;;8.38;55.79;95536.72;5076613;28;20482;-54
2022/10/19 00:37:25;;;;;;;13.10;7.53;;;8.40;80.20;;;8.35;56.02;95531.72;5080698;28;20967;-54
2022/10/19 00:39:52;;;;;;;13.33;7.30;;;8.30;80.50;;;8.32;55.88;95524.06;5074835;28;20482;-54
2022/10/19 00:42:19;;;;;;;15.23;6.60;;;8.30;80.50;;;8.30;56.04;95518.06;5083125;28;20458;-54
2022/10/19 00:45:05;;;;;;;13.33;6.97;;;8.30;81.30;;;8.26;56.38;95517.47;5079920;28;21205;-54
2022/10/19 00:47:34;;;;;;;29.40;9.27;;;8.30;81.60;;;8.24;55.63;95515.91;5080625;28;20478;-54
2022/10/19 00:50:01;;;;;;;14.50;7.53;;;8.20;81.20;;;8.22;56.49;95521.25;5074053;28;20477;-57
2022/10/19 00:52:28;;;;;;;12.83;7.33;;;8.20;81.90;;;8.19;55.84;95505.75;5079705;28;20506;-53
2022/10/19 00:54:56;;;;;;;22.60;7.50;;;8.20;81.30;;;8.15;56.12;95504.31;5074122;28;20524;-57
2022/10/19 00:57:23;;;;;;;19.93;7.47;;;8.10;81.10;;;8.12;55.50;95499.28;5076952;28;20462;-54
2022/10/19 00:59:51;;;;;;;12.83;7.60;;;8.10;81.50;;;8.08;56.33;95498.63;5077804;28;20558;-54
2022/10/19 01:02:18;;;;;;;23.53;8.83;;;8.10;82.20;;;8.06;55.81;95494.47;5075351;28;20450;-56
2022/10/19 01:04:48;;;;;;;16.77;8.90;;;8.10;82.00;;;8.04;56.09;95485.88;5078840;28;20602;-55
2022/10/19 01:07:16;;;;;;;22.57;10.27;;;8.00;81.90;;;8.00;55.66;95485.25;5083040;28;20511;-55
2022/10/19 01:09:43;;;;;;;23.17;8.70;;;8.00;81.50;;;7.98;55.29;95478.44;5072742;28;20516;-54
2022/10/19 01:12:20;;;;;;;25.00;10.30;;;8.00;81.00;;;7.94;55.87;95474.38;5085078;28;20535;-56
2022/10/19 01:15:00;;;;;;;22.97;10.10;;;7.90;81.00;;;7.92;55.43;95473.63;5077427;28;20481;-53
2022/10/19 01:17:34;;;;;;;23.17;8.90;;;7.90;80.90;;;7.89;55.98;95472.91;5074092;28;20449;-54
2022/10/19 01:20:34;;;;;;;18.87;9.30;;;7.90;81.70;;;7.89;56.00;95475.53;5080285;28;21054;-55
2022/10/19 01:23:20;;;;;;;10.97;6.90;;;7.90;82.40;;;7.86;56.56;95467.91;5073050;28;20476;-54
2022/10/19 01:25:54;;;;;;;9.10;5.27;;;7.80;82.40;;;7.84;55.87;95463.75;5070792;28;20978;-55
2022/10/19 01:28:38;;;;;;;10.80;6.70;;;7.80;82.90;;;7.84;56.14;95469.81;5081182;28;20579;-57
2022/10/19 01:31:10;;;;;;;14.80;6.97;;;7.80;82.90;;;7.82;55.78;95463.84;5076064;28;20438;-55
2022/10/19 01:33:42;;;;;;;16.03;6.40;;;7.80;82.90;;;7.80;55.89;95459.66;5085069;28;20466;-56
2022/10/19 01:36:18;;;;;;;11.03;6.33;;;7.80;83.20;;;7.78;56.85;95454.53;5081810;28;20446;-54
2022/10/19 01:38:51;;;;;;;12.83;6.67;;;7.80;84.30;;;7.76;56.10;95451.19;5085335;28;20531;-55
2022/10/19 01:41:20;;;;;;;7.80;5.20;;;7.80;84.00;;;7.72;56.50;95458.41;5088653;28;20450;-58
2022/10/19 01:43:50;;;;;;;4.33;3.90;;;7.70;84.40;;;7.68;56.06;95448.25;5087843;28;20466;-54
2022/10/19 01:46:21;;;;;;;5.90;4.80;;;7.70;83.90;;;7.64;56.26;95446.81;5088628;28;20438;-54
2022/10/19 01:48:54;;;;;;;7.47;4.40;;;7.60;83.70;;;7.61;56.80;95447.84;5081101;28;20497;-56
2022/10/19 01:51:23;;;;;;;4.97;4.40;;;7.60;83.80;;;7.60;56.34;95442.72;5088519;28;21086;-55
2022/10/19 01:53:53;;;;;;;6.50;4.73;;;7.60;83.70;;;7.59;56.56;95446.28;5084841;28;20552;-57
2022/10/19 01:56:22;;;;;;;9.53;5.23;;;7.60;84.50;;;7.58;57.48;95439.38;5080381;28;20817;-55
2022/10/19 01:58:49;;;;;;;13.30;4.37;;;7.60;85.20;;;7.57;57.16;95437.69;5081936;28;20505;-57
2022/10/19 02:01:19;;;;;;;7.07;4.57;;;7.60;85.00;;;7.55;57.26;95435.19;5079707;28;20481;-55
2022/10/19 02:03:46;;;;;;;7.33;5.10;;;7.60;85.30;;;7.53;57.35;95443.16;5085182;28;20486;-55
2022/10/19 02:06:14;;;;;;;8.20;5.80;;;7.50;85.20;;;7.52;56.73;95443.25;5085658;28;20462;-54
2022/10/19 02:08:44;;;;;;;5.10;4.20;;;7.50;85.80;;;7.51;57.33;95441.56;5083366;28;20497;-53
2022/10/19 02:11:11;;;;;;;14.27;5.07;;;7.50;86.00;;;7.48;57.17;95447.03;5075771;28;20521;-53
2022/10/19 02:13:39;;;;;;;14.63;4.60;;;7.50;85.80;;;7.46;57.65;95436.66;5084663;28;20985;-53
2022/10/19 02:16:09;;;;;;;5.50;4.80;;;7.40;86.00;;;7.45;57.82;95436.75;5078096;28;20830;-57
2022/10/19 02:18:41;;;;;;;10.40;4.30;;;7.50;86.70;;;7.42;56.92;95443.06;5085649;28;20470;-55
2022/10/19 02:21:09;;;;;;;6.57;4.80;;;7.40;85.70;;;7.39;56.75;95439.81;5077656;28;20455;-54
2022/10/19 02:23:36;;;;;;;4.77;4.13;;;7.40;85.40;;;7.36;56.30;95438.25;5077365;28;20479;-55
2022/10/19 02:26:03;;;;;;;7.10;3.60;;;7.40;84.70;;;7.29;55.95;95434.38;5082271;28;20491;-56
2022/10/19 02:28:31;;;;;;;5.63;4.50;;;7.30;83.90;;;7.24;56.18;95442.56;5079295;28;21035;-54
2022/10/19 02:30:58;;;;;;;8.97;4.87;;;7.30;84.30;;;7.17;56.12;95439.53;5082245;28;21622;-56
2022/10/19 02:33:25;;;;;;;7.33;3.47;;;7.20;84.10;;;7.15;56.77;95438.78;5075146;28;20485;-54
2022/10/19 02:35:54;;;;;;;5.90;4.60;;;7.20;84.60;;;7.13;56.18;95438.06;5081258;28;20932;-55
2022/10/19 02:38:22;;;;;;;8.77;4.50;;;7.10;84.50;;;7.12;56.18;95441.59;5082248;28;20506;-56
2022/10/19 02:40:52;;;;;;;8.93;3.87;;;7.10;84.80;;;7.12;56.56;95438.97;5080028;28;20469;-57
2022/10/19 02:43:21;;;;;;;7.23;4.17;;;7.10;84.70;;;7.11;56.49;95442.56;5075241;28;20527;-59
2022/10/19 02:45:54;;;;;;;6.63;3.77;;;7.10;84.70;;;7.10;56.09;95438.25;5079393;28;21114;-54
2022/10/19 02:48:23;;;;;;;6.70;4.50;;;7.10;84.90;;;7.08;56.55;95428.84;5081062;28;20509;-56
2022/10/19 02:50:51;;;;;;;7.97;3.90;;;7.10;85.00;;;7.10;55.85;95434.81;5079979;28;20466;-54
2022/10/19 02:53:20;;;;;;;6.27;4.27;;;7.10;84.70;;;7.11;56.15;95433.84;5077810;28;20472;-56
2022/10/19 02:55:48;;;;;;;4.83;4.23;;;7.10;85.40;;;7.10;56.81;95426.97;5079912;28;20458;-54
2022/10/19 02:58:15;;;;;;;6.57;4.43;;;7.00;85.20;;;7.08;56.95;95434.91;5072053;28;20538;-57
2022/10/19 03:00:42;;;;;;;7.40;5.40;;;7.10;85.70;;;7.08;56.46;95432.31;5083659;28;20887;-55
2022/10/19 03:03:10;;;;;;;11.70;4.13;;;7.10;86.10;;;7.08;56.95;95439.28;5085650;28;20461;-53
2022/10/19 03:05:38;;;;;;;5.93;4.73;;;7.10;86.10;;;7.06;56.61;95431.56;5084849;28;20450;-57
2022/10/19 03:08:05;;;;;;;8.73;5.00;;;7.10;86.30;;;7.05;56.88;95432.50;5085173;28;20481;-58
2022/10/19 03:10:34;;;;;;;18.13;5.23;;;7.10;86.20;;;7.04;57.06;95433.44;5087055;28;20450;-56
2022/10/19 03:13:01;;;;;;;11.13;5.80;;;7.00;86.20;;;7.03;56.99;95436.16;5083585;28;20453;-55
2022/10/19 03:15:29;;;;;;;10.13;5.30;;;7.10;86.30;;;7.01;57.69;95433.66;5081005;28;20454;-56
2022/10/19 03:17:56;;;;;;;8.60;4.60;;;7.00;86.70;;;6.97;57.52;95437.41;5078309;28;20978;-54
2022/10/19 03:20:23;;;;;;;9.33;5.10;;;7.00;86.90;;;6.96;57.57;95435.75;5080355;28;20493;-55
2022/10/19 03:22:51;;;;;;;16.83;5.13;;;7.00;86.80;;;6.93;57.83;95426.31;5079805;28;20461;-56
2022/10/19 03:25:18;;;;;;;8.87;5.50;;;6.90;87.50;;;6.91;57.02;95428.22;5083154;28;20477;-55
2022/10/19 03:27:47;;;;;;;6.73;4.97;;;6.90;87.10;;;6.91;57.80;95432.59;5086024;28;20515;-54
2022/10/19 03:30:14;;;;;;;12.23;5.47;;;6.90;87.30;;;6.89;57.19;95429.25;5087254;28;21036;-54
2022/10/19 03:32:41;;;;;;;17.50;6.37;;;6.90;87.50;;;6.86;57.98;95424.22;5086013;28;20462;-55
2022/10/19 03:35:09;;;;;;;16.13;5.67;;;6.90;87.90;;;6.84;58.20;95428.72;5084741;28;20474;-54
2022/10/19 03:37:36;;;;;;;10.33;5.40;;;6.80;88.20;;;6.81;57.21;95421.91;5076331;28;20458;-53
2022/10/19 03:40:05;;;;;;;14.30;5.63;;;6.80;87.70;;;6.81;57.43;95427.16;5083811;28;20473;-55
2022/10/19 03:42:32;;;;;;;12.03;6.03;;;6.80;87.50;;;6.79;57.91;95424.63;5086112;28;20580;-54
2022/10/19 03:45:00;;;;;;;12.90;5.40;;;6.80;88.10;;;6.78;58.38;95424.75;5079082;28;20475;-55
2022/10/19 03:47:28;;;;;;;10.87;6.37;;;6.80;88.40;;;6.76;58.19;95424.84;5079285;28;20453;-56
2022/10/19 03:49:55;;;;;;;13.30;6.03;;;6.80;88.60;;;6.72;58.27;95418.13;5085672;28;20497;-55
2022/10/19 03:52:23;;;;;;;32.87;6.60;;;6.80;88.70;;;6.70;57.77;95420.03;5082430;28;20449;-54
2022/10/19 03:54:50;;;;;;;13.50;6.10;;;6.70;88.30;;;6.68;57.75;95419.31;5083162;28;20471;-54
2022/10/19 03:57:18;;;;;;;14.43;6.70;;;6.70;88.60;;;6.68;57.94;95415.84;5083439;28;20895;-58
2022/10/19 03:59:45;;;;;;;19.40;6.93;;;6.70;89.00;;;6.67;58.43;95419.41;5078770;28;20465;-54
2022/10/19 04:02:14;;;;;;;17.20;7.40;;;6.70;88.90;;;6.63;57.97;95409.16;5078995;28;20473;-53
2022/10/19 04:04:41;;;;;;;17.13;7.63;;;6.70;88.70;;;6.61;57.58;95413.63;5084670;28;20482;-54
2022/10/19 04:07:08;;;;;;;20.20;7.93;;;6.70;88.60;;;6.59;57.91;95410.28;5085647;28;20450;-55
2022/10/19 04:09:35;;;;;;;19.80;8.77;;;6.60;88.60;;;6.59;57.65;95417.31;5080621;28;20497;-54
2022/10/19 04:12:03;;;;;;;22.20;8.87;;;6.60;88.70;;;6.59;57.52;95412.06;5085094;28;20903;-56
2022/10/19 04:14:31;;;;;;;27.00;7.20;;;6.60;88.80;;;6.54;58.23;95403.72;5084993;28;20474;-53
2022/10/19 04:16:58;;;;;;;25.63;8.60;;;6.60;88.70;;;6.56;58.29;95412.28;5085729;28;20527;-54
2022/10/19 04:19:27;;;;;;;14.37;7.70;;;6.60;88.80;;;6.54;57.71;95411.56;5084937;28;20827;-56
2022/10/19 04:21:54;;;;;;;14.43;8.30;;;6.60;88.90;;;6.50;57.91;95395.22;5084277;28;20688;-54
2022/10/19 04:24:21;;;;;;;11.57;7.63;;;6.60;89.40;;;6.52;58.03;95395.97;5085127;28;20604;-54
2022/10/19 04:26:49;;;;;;;12.60;7.43;;;6.50;89.20;;;6.53;58.57;95402.03;5085476;28;20836;-54
2022/10/19 04:29:18;;;;;;;14.83;6.77;;;6.50;89.80;;;6.51;58.28;95396.06;5085034;28;21023;-56
2022/10/19 04:31:46;;;;;;;20.53;7.60;;;6.50;90.00;;;6.51;58.40;95403.91;5082913;28;20442;-56
2022/10/19 04:34:13;;;;;;;20.23;7.40;;;6.50;90.00;;;6.49;58.86;95396.19;5084015;28;20749;-56
2022/10/19 04:36:42;;;;;;;40.17;8.17;;;6.50;90.30;;;6.49;58.15;95397.94;5085450;28;20829;-56
2022/10/19 04:39:09;;;;;;;22.90;7.57;;;6.50;90.10;;;6.47;58.30;95398.03;5085265;28;20466;-57
2022/10/19 04:41:37;;;;;;;19.73;8.30;;;6.50;90.20;;;6.45;58.67;95400.75;5082875;28;20841;-56
2022/10/19 04:44:06;;;;;;;18.03;8.63;;;6.50;90.60;;;6.44;59.01;95396.47;5085058;28;20481;-57
2022/10/19 04:46:33;;;;;;;21.83;8.33;;;6.50;90.50;;;6.44;58.96;95403.47;5084477;28;20541;-54
2022/10/19 04:49:03;;;;;;;20.20;7.83;;;6.50;90.50;;;6.42;58.54;95395.72;5076053;28;20551;-54
2022/10/19 04:51:30;;;;;;;29.97;8.27;;;6.40;90.40;;;6.43;58.81;95401.81;5078630;28;20485;-56
2022/10/19 04:53:59;;;;;;;26.90;8.93;;;6.40;90.40;;;6.44;58.51;95398.25;5083290;28;20922;-54
2022/10/19 04:56:26;;;;;;;21.63;9.47;;;6.50;90.40;;;6.44;58.50;95396.47;5076574;28;20479;-56
2022/10/19 04:58:55;;;;;;;38.97;9.40;;;6.50;90.50;;;6.47;58.32;95395.41;5083599;28;20496;-56
2022/10/19 05:01:22;;;;;;;41.70;10.10;;;6.50;90.50;;;6.50;58.63;95399.63;5077882;28;20481;-54
2022/10/19 05:03:54;;;;;;;19.03;9.60;;;6.50;90.50;;;6.51;58.63;95399.53;5085033;28;20489;-55
2022/10/19 05:06:21;;;;;;;21.73;11.07;;;6.50;90.40;;;6.55;58.41;95400.13;5077289;28;20524;-56
2022/10/19 05:08:49;;;;;;;23.37;10.50;;;6.50;90.10;;;6.57;58.31;95393.06;5083077;28;20490;-54
2022/10/19 05:11:18;;;;;;;26.60;9.87;;;6.60;90.10;;;6.58;57.76;95389.47;5082802;28;20502;-54
2022/10/19 05:13:45;;;;;;;21.57;9.43;;;6.60;90.00;;;6.61;58.10;95395.31;5084058;28;20465;-56
2022/10/19 05:16:14;;;;;;;30.93;10.60;;;6.60;89.80;;;6.62;58.25;95391.78;5087090;28;20514;-55
2022/10/19 05:18:41;;;;;;;22.60;9.63;;;6.60;90.10;;;6.66;58.31;95387.19;5078236;28;20854;-56
2022/10/19 05:21:09;;;;;;;22.97;9.97;;;6.70;90.20;;;6.71;58.02;95398.19;5086845;28;20973;-54
2022/10/19 05:23:37;;;;;;;27.50;9.40;;;6.70;90.10;;;6.74;57.72;95394.50;5088726;28;20492;-54
2022/10/19 05:26:07;;;;;;;17.70;8.00;;;6.80;90.10;;;6.79;57.45;95395.06;5083157;28;21031;-56
2022/10/19 05:28:35;;;;;;;23.50;9.53;;;6.80;89.70;;;6.82;57.29;95398.28;5089033;28;20523;-55
2022/10/19 05:31:10;;;;;;;18.17;9.33;;;6.80;89.60;;;6.88;57.64;95409.25;5088701;28;20531;-54
2022/10/19 05:33:37;;;;;;;21.87;8.20;;;6.90;89.40;;;6.93;57.77;95405.41;5088643;28;20461;-56
2022/10/19 05:36:16;;;;;;;21.60;9.13;;;6.90;89.30;;;6.99;57.01;95409.38;5087951;28;20456;-54
2022/10/19 05:38:43;;;;;;;29.97;11.00;;;7.00;89.30;;;7.06;56.94;95405.41;5087826;28;21063;-57
2022/10/19 05:41:10;;;;;;;34.80;10.70;;;7.00;89.20;;;7.18;57.12;95412.41;5087861;28;20449;-56
2022/10/19 05:43:39;;;;;;;21.53;10.03;;;7.20;89.00;;;7.28;57.02;95403.91;5088336;28;20622;-54
2022/10/19 05:46:08;;;;;;;21.87;9.10;;;7.30;88.40;;;7.38;57.68;95404.13;5088170;28;20515;-52
2022/10/19 05:48:35;;;;;;;26.23;9.97;;;7.40;89.70;;;7.52;57.65;95401.38;5088318;28;20473;-53
2022/10/19 05:51:04;;;;;;;22.50;11.27;;;7.50;90.50;;;7.74;57.61;95405.94;5078180;28;20462;-54
2022/10/19 05:53:31;;;;;;;24.20;10.93;;;7.60;90.70;;;8.11;58.29;95400.66;5086513;28;20617;-55
2022/10/19 05:55:58;;;;;;;25.40;8.20;;;7.90;91.60;;;8.57;57.58;95399.94;5084582;28;20511;-62
2022/10/19 05:58:26;;;;;;;23.23;9.07;;;8.30;91.30;;;9.09;56.67;95407.44;5088040;28;20473;-56
2022/10/19 06:00:55;;;;;;;28.30;10.53;;;8.80;90.30;;;9.62;55.15;95409.47;5087530;28;20461;-54
2022/10/19 06:03:23;;;;;;;15.30;8.50;;;9.30;88.50;;;10.13;53.79;95406.28;5080103;28;20478;-61
2022/10/19 06:05:50;;;;;;;30.23;9.90;;;9.80;86.50;;;10.67;52.64;95407.16;5088167;28;20450;-56
2022/10/19 06:08:17;;;;;;;18.57;8.60;;;10.30;82.80;;;11.20;51.48;95410.69;5088648;28;20466;-53
2022/10/19 06:10:44;;;;;;;16.80;9.10;;;10.80;80.60;;;11.72;50.48;95408.03;5087928;28;20486;-54
2022/10/19 06:13:13;;;;;;;22.67;7.20;;;11.30;78.60;;;12.22;49.78;95417.75;5088014;28;20461;-54
2022/10/19 06:15:41;;;;;;;19.53;8.03;;;11.80;77.40;;;12.71;48.54;95414.16;5080489;28;20442;-55
2022/10/19 06:18:11;;;;;;;14.03;7.30;;;12.30;75.10;;;13.22;47.59;95412.16;5088002;28;20520;-56
2022/10/19 06:20:39;;;;;;;12.17;6.97;;;12.80;72.90;;;13.71;47.33;95421.78;5088368;28;20464;-55
2022/10/19 06:23:06;;;;;;;19.13;5.57;;;13.30;72.60;;;14.19;46.16;95420.72;5088204;28;20454;-55
2022/10/19 06:25:33;;;;;;;9.97;6.63;;;13.80;70.60;;;14.67;44.97;95419.56;5087729;28;20461;-56
2022/10/19 06:28:01;;;;;;;18.63;7.73;;;14.20;67.20;;;15.03;43.95;95416.88;5087320;28;20922;-55
2022/10/19 06:30:28;;;;;;;24.83;7.83;;;14.60;65.40;;;15.36;42.73;95422.41;5085810;28;21093;-54
2022/10/19 06:32:55;;;;;;;19.37;8.90;;;14.90;63.50;;;15.70;42.86;95416.31;5087493;28;20453;-55
2022/10/19 06:35:24;;;;;;;37.13;10.10;;;15.20;62.90;;;16.15;42.76;95425.00;5087728;28;20516;-56
2022/10/19 06:37:51;;;;;;;17.70;9.90;;;15.60;62.80;;;16.65;42.26;95418.84;5087692;28;20461;-56
2022/10/19 06:40:19;;;;;;;21.83;10.70;;;16.00;62.20;;;17.14;41.71;95414.56;5081615;28;20966;-57
2022/10/19 06:42:46;;;;;;;19.47;11.60;;;16.60;60.40;;;17.63;40.60;95416.31;5087378;28;20511;-54
2022/10/19 06:45:13;;;;;;;14.17;9.80;;;17.00;59.40;;;18.05;40.52;95408.06;5087358;28;20684;-55
2022/10/19 06:47:40;;;;;;;15.10;8.90;;;17.40;57.80;;;18.50;40.09;95400.34;5087097;28;20969;-54
2022/10/19 06:50:08;;;;;;;18.13;11.43;;;17.80;57.50;;;18.95;40.08;95412.06;5087096;28;20912;-54
2022/10/19 06:52:39;;;;;;;25.93;11.23;;;18.20;57.70;;;19.40;39.02;95406.84;5083009;28;20993;-55
2022/10/19 06:55:08;;;;;;;16.63;10.60;;;18.70;57.00;;;19.88;38.37;95403.88;5084190;28;21404;-55
2022/10/19 06:57:35;;;;;;;20.23;11.33;;;19.20;55.70;;;20.32;37.69;95399.50;5083302;28;20938;-56
2022/10/19 07:00:03;;;;;;;32.37;12.50;;;19.60;55.10;;;20.83;37.29;95393.28;5081878;28;21205;-56
2022/10/19 07:02:30;;;;;;;26.83;12.00;;;20.20;54.30;;;21.41;36.91;95391.34;5086161;28;20561;-54
2022/10/19 07:04:57;;;;;;;16.97;12.60;;;20.80;53.80;;;21.99;36.12;95385.75;5079644;28;20485;-55
2022/10/19 07:07:25;;;;;;;50.97;13.27;;;21.40;52.70;;;22.55;35.72;95382.06;5087070;28;20454;-55
2022/10/19 07:09:53;;;;;;;25.37;12.03;;;22.10;51.70;;;23.12;34.87;95387.16;5087305;28;20497;-56
2022/10/19 07:12:21;;;;;;;31.07;11.83;;;22.80;50.60;;;23.69;33.49;95387.56;5086784;28;20454;-54
2022/10/19 07:14:48;;;;;;;24.13;12.50;;;23.40;48.70;;;24.24;33.34;95386.41;5086884;28;20470;-57
2022/10/19 07:17:15;;;;;;;33.83;12.07;;;24.00;48.20;;;24.77;32.48;95379.97;5086433;28;20477;-56
2022/10/19 07:19:42;;;;;;;32.63;11.90;;;24.60;46.60;;;25.28;31.43;95384.38;5084811;28;20856;-55
2022/10/19 07:22:10;;;;;;;21.30;10.50;;;25.20;46.20;;;25.72;30.69;95387.97;5087024;28;20564;-55
2022/10/19 07:24:37;;;;;;;26.17;12.03;;;25.70;45.00;;;26.10;30.28;95378.06;5086510;28;20552;-55
2022/10/19 07:27:06;;;;;;;20.50;13.07;;;26.10;43.30;;;26.48;29.38;95379.69;5086319;28;20461;-57
2022/10/19 07:29:33;;;;;;;17.70;11.70;;;26.60;42.60;;;26.80;29.12;95377.63;5086596;28;20493;-54
2022/10/19 07:32:00;;;;;;;16.50;11.37;;;26.90;41.90;;;27.10;28.71;95370.56;5085812;28;20897;-56
2022/10/19 07:34:28;;;;;;;19.70;11.80;;;27.30;41.30;;;27.35;28.24;95370.41;5085399;28;20473;-54
2022/10/19 07:36:55;;;;;;;17.20;11.27;;;27.60;40.40;;;27.56;27.85;95374.41;5079318;28;20458;-56
2022/10/19 07:39:22;;;;;;;28.63;12.50;;;27.90;39.60;;;27.74;27.33;95365.34;5086262;28;20589;-56
2022/10/19 07:41:49;;;;;;;25.10;12.10;;;28.10;39.00;;;27.86;27.29;95366.16;5086149;28;20957;-55
2022/10/19 07:44:18;;;;;;;19.10;11.73;;;28.10;38.10;;;27.93;26.88;95357.94;5086078;28;20470;-55
2022/10/19 07:46:45;;;;;;;21.60;9.50;;;28.20;38.20;;;28.03;26.96;95351.97;5086486;28;20952;-55
2022/10/19 07:49:17;;;;;;;24.90;12.00;;;28.10;37.90;;;28.05;26.03;95350.66;5078621;28;20466;-54
2022/10/19 07:51:45;;;;;;;25.57;12.23;;;28.00;37.70;;;28.08;26.05;95347.47;5082161;28;20438;-55
2022/10/19 07:54:12;;;;;;;21.43;11.87;;;27.90;37.40;;;28.16;26.01;95345.47;5086114;28;20547;-54
2022/10/19 07:56:39;;;;;;;33.57;12.10;;;27.90;37.30;;;28.26;25.83;95340.28;5083407;28;20472;-56
2022/10/19 07:59:07;;;;;;;27.67;10.70;;;28.00;37.00;;;28.34;26.09;95344.50;5085655;28;20534;-56
2022/10/19 08:01:39;;;;;;;38.73;10.00;;;28.00;36.70;;;28.41;25.24;95342.44;5085844;28;20467;-54
2022/10/19 08:04:07;;;;;;;16.37;9.43;;;28.00;36.60;;;28.52;25.08;95336.19;5085472;28;20481;-53
2022/10/19 08:06:35;;;;;;;33.33;10.87;;;28.10;36.30;;;28.64;24.79;95327.22;5085770;28;20535;-55
2022/10/19 08:09:03;;;;;;;22.00;10.00;;;28.20;35.90;;;28.70;25.45;95331.66;5085519;28;20474;-58
2022/10/19 08:11:32;;;;;;;19.87;10.17;;;28.20;35.60;;;28.75;24.65;95327.19;5086120;28;20562;-55
2022/10/19 08:14:01;;;;;;;21.53;9.03;;;28.30;35.60;;;28.86;24.42;95327.34;5086958;28;20557;-55
2022/10/19 08:16:31;;;;;;;21.33;10.37;;;28.40;35.60;;;28.94;24.41;95332.38;5086326;28;20453;-56
2022/10/19 08:19:01;;;;;;;32.87;10.83;;;28.40;35.30;;;29.01;24.20;95324.91;5082101;28;20466;-55
2022/10/19 08:21:29;;;;;;;17.90;9.30;;;28.50;35.10;;;29.14;24.37;95331.88;5086256;28;20445;-55
2022/10/19 08:23:56;;;;;;;54.37;11.73;;;28.60;35.10;;;29.29;24.15;95326.75;5085998;28;20483;-55
2022/10/19 08:26:23;;;;;;;23.13;9.73;;;28.70;34.90;;;29.39;23.87;95317.13;5085669;28;20499;-57
2022/10/19 08:28:51;;;;;;;18.93;10.27;;;28.80;34.40;;;29.52;23.89;95319.50;5085499;28;20482;-54
2022/10/19 08:31:19;;;;;;;22.67;9.20;;;29.00;34.80;;;29.67;24.26;95319.75;5084978;28;20763;-56
2022/10/19 08:33:48;;;;;;;11.77;9.07;;;29.10;34.50;;;29.86;24.30;95322.19;5084592;28;21004;-56
2022/10/19 08:36:18;;;;;;;24.00;9.10;;;29.20;34.40;;;30.03;23.63;95309.41;5085534;28;20453;-56
2022/10/19 08:38:47;;;;;;;27.43;9.10;;;29.40;34.10;;;30.17;23.87;95309.84;5085258;28;20852;-54
2022/10/19 08:41:27;;;;;;;20.17;7.47;;;29.60;33.80;;;30.31;23.98;95310.28;5078098;28;20981;-56
2022/10/19 08:44:15;;;;;;;23.40;7.80;;;29.70;33.70;;;30.46;23.34;95301.53;5077584;28;20465;-57
2022/10/19 08:46:46;;;;;;;17.50;6.90;;;29.80;33.30;;;30.46;23.05;95304.25;5078661;28;20442;-54
2022/10/19 08:49:18;;;;;;;17.73;6.03;;;29.80;32.50;;;30.43;23.63;95306.63;5087108;28;20468;-55
2022/10/19 08:51:49;;;;;;;20.90;5.63;;;29.80;33.10;;;30.47;23.56;95305.88;5078083;28;20470;-55
2022/10/19 08:54:17;;;;;;;18.67;5.50;;;29.90;33.00;;;30.56;22.71;95296.19;5089645;28;20477;-56
2022/10/19 08:56:49;;;;;;;12.43;4.93;;;29.90;32.90;;;30.71;22.64;95292.81;5080637;28;20460;-55
2022/10/19 08:59:28;;;;;;;9.40;3.80;;;30.00;32.80;;;30.90;22.49;95295.16;5089408;28;20478;-57
2022/10/19 09:01:56;;;;;;;5.37;4.30;;;30.20;32.80;;;31.09;23.10;95291.03;5085313;28;20456;-56
2022/10/19 09:04:26;;;;;;;12.43;4.53;;;30.40;32.80;;;31.30;22.91;95288.47;5088860;28;20517;-54
2022/10/19 09:07:33;;;;;;;13.07;4.07;;;30.60;32.50;;;31.56;22.63;95285.97;5089744;28;20842;-55
2022/10/19 09:10:02;;;;;;;7.40;4.17;;;30.80;32.20;;;31.79;22.20;95287.44;5089481;28;20564;-54
2022/10/19 09:12:40;;;;;;;13.87;4.47;;;31.00;32.10;;;31.97;22.08;95283.44;5089080;28;20461;-55
2022/10/19 09:15:11;;;;;;;16.47;4.10;;;31.30;32.30;;;32.16;21.94;95281.09;5083864;28;21012;-56
2022/10/19 09:17:38;;;;;;;5.60;3.40;;;31.40;31.30;;;32.32;22.00;95279.28;5087514;28;20556;-54
2022/10/19 09:20:17;;;;;;;6.87;3.50;;;31.60;31.20;;;32.46;21.91;95282.31;5088577;28;20775;-54
2022/10/19 09:22:46;;;;;;;8.10;3.70;;;31.70;31.00;;;32.53;21.69;95280.97;5087450;28;20678;-54
2022/10/19 09:25:17;;;;;;;34.23;5.90;;;31.80;30.10;;;32.49;20.84;95285.31;5088478;28;20473;-55
2022/10/19 09:27:45;;;;;;;7.23;3.37;;;31.80;29.20;;;32.21;21.21;95283.84;5081799;28;20199;-56
2022/10/19 09:30:18;;;;;;;7.90;3.63;;;31.60;30.00;;;31.92;20.82;95278.00;5088554;28;20292;-55
2022/10/19 09:32:45;;;;;;;7.10;3.17;;;31.40;29.70;;;31.82;21.63;95289.63;5087936;28;20227;-56
2022/10/19 09:35:26;;;;;;;18.73;3.07;;;31.30;30.60;;;31.92;21.42;95288.88;5088512;28;20985;-57
2022/10/19 09:37:54;;;;;;;4.80;3.30;;;31.30;30.40;;;32.05;21.81;95282.94;5083344;28;20589;-55
2022/10/19 09:40:23;;;;;;;9.97;3.83;;;31.30;30.60;;;32.11;21.45;95286.53;5088157;28;20203;-55
2022/10/19 09:42:55;;;;;;;7.37;3.83;;;31.40;30.40;;;32.13;21.35;95282.47;5082237;28;20652;-55
2022/10/19 09:45:32;;;;;;;5.70;4.30;;;31.50;30.00;;;32.16;21.14;95273.78;5088497;28;20279;-54
2022/10/19 09:48:00;;;;;;;4.20;3.53;;;31.50;30.40;;;32.17;21.63;95274.59;5084241;28;20202;-55
2022/10/19 09:50:28;;;;;;;4.90;3.40;;;31.50;30.00;;;32.13;21.66;95284.34;5087955;28;20227;-55
2022/10/19 09:52:57;;;;;;;15.90;3.97;;;31.50;30.30;;;32.10;21.37;95271.28;5084587;28;20460;-56
2022/10/19 09:55:29;;;;;;;6.37;3.67;;;31.40;29.90;;;32.06;21.53;95276.41;5087636;28;20672;-55
2022/10/19 09:58:02;;;;;;;5.33;3.50;;;31.40;30.40;;;32.08;21.53;95271.50;5082427;28;20457;-56
2022/10/19 10:00:38;;;;;;;7.27;3.77;;;31.40;30.30;;;32.10;21.77;95271.28;5088343;28;20845;-55
2022/10/19 10:03:06;;;;;;;5.30;3.63;;;31.40;30.60;;;32.15;21.89;95258.50;5088198;28;20687;-57
2022/10/19 10:05:35;;;;;;;30.73;4.50;;;31.40;30.40;;;32.17;20.62;95258.25;5088017;28;20532;-56
2022/10/19 10:08:04;;;;;;;4.27;3.50;;;31.50;29.20;;;31.93;20.20;95249.69;5087738;28;20652;-54
2022/10/19 10:10:37;;;;;;;13.20;3.13;;;31.40;29.00;;;31.66;21.66;95255.28;5087972;28;20308;-55
2022/10/19 10:13:04;;;;;;;4.70;3.50;;;31.20;29.90;;;31.46;21.41;95237.72;5088803;28;20241;-53
2022/10/19 10:15:36;;;;;;;5.90;3.23;;;30.90;29.30;;;31.26;21.20;95235.69;5087951;28;20195;-55
2022/10/19 10:18:04;;;;;;;5.30;3.50;;;30.70;29.80;;;31.23;20.75;95238.94;5079256;28;20887;-56
2022/10/19 10:20:32;;;;;;;6.07;3.20;;;30.70;29.60;;;31.16;20.21;95228.28;5087883;28;20545;-55
2022/10/19 10:23:01;;;;;;;5.83;3.80;;;30.50;28.30;;;30.88;21.18;95221.28;5088489;28;20215;-55
2022/10/19 10:25:31;;;;;;;9.63;3.73;;;30.40;29.20;;;30.72;20.78;95220.31;5086791;28;20200;-55
2022/10/19 10:28:00;;;;;;;14.93;3.77;;;30.20;29.50;;;30.67;21.25;95215.66;5080808;28;20204;-53